sensor_id;sensor_type;location;lat;lon;timestamp;P1;durP1;ratioP1;P2;durP2;ratioP2
72427;SDS011;60419;48.880;18.036;2022-11-27T00:01:48;11.38;;;6.90;;
72427;SDS011;60419;48.880;18.036;2022-11-27T00:04:33;11.40;;;6.85;;
72427;SDS011;60419;48.880;18.036;2022-11-27T00:07:18;11.43;;;7.07;;
72427;SDS011;60419;48.880;18.036;2022-11-27T00:10:04;12.40;;;7.68;;
72427;SDS011;60419;48.880;18.036;2022-11-27T00:12:50;12.02;;;7.35;;
72427;SDS011;60419;48.880;18.036;2022-11-27T00:15:35;11.55;;;6.75;;
72427;SDS011;60419;48.880;18.036;2022-11-27T00:18:21;14.82;;;8.30;;
72427;SDS011;60419;48.880;18.036;2022-11-27T00:21:10;11.98;;;6.55;;
72427;SDS011;60419;48.880;18.036;2022-11-27T00:23:58;10.43;;;6.28;;
72427;SDS011;60419;48.880;18.036;2022-11-27T00:26:45;10.70;;;6.13;;
72427;SDS011;60419;48.880;18.036;2022-11-27T00:29:33;11.60;;;6.18;;
72427;SDS011;60419;48.880;18.036;2022-11-27T00:32:19;11.13;;;6.90;;
72427;SDS011;60419;48.880;18.036;2022-11-27T00:35:04;10.95;;;6.35;;
72427;SDS011;60419;48.880;18.036;2022-11-27T00:37:50;13.13;;;6.88;;
72427;SDS011;60419;48.880;18.036;2022-11-27T00:40:35;9.95;;;6.18;;
72427;SDS011;60419;48.880;18.036;2022-11-27T00:43:21;13.80;;;7.65;;
72427;SDS011;60419;48.880;18.036;2022-11-27T00:46:06;14.82;;;9.05;;
72427;SDS011;60419;48.880;18.036;2022-11-27T00:48:51;16.63;;;8.20;;
72427;SDS011;60419;48.880;18.036;2022-11-27T00:51:37;17.30;;;9.85;;
72427;SDS011;60419;48.880;18.036;2022-11-27T00:54:23;17.73;;;10.57;;
72427;SDS011;60419;48.880;18.036;2022-11-27T00:57:08;19.42;;;10.88;;
72427;SDS011;60419;48.880;18.036;2022-11-27T00:59:53;18.63;;;11.07;;
72427;SDS011;60419;48.880;18.036;2022-11-27T01:02:39;18.50;;;11.77;;
72427;SDS011;60419;48.880;18.036;2022-11-27T01:05:24;18.67;;;10.75;;
72427;SDS011;60419;48.880;18.036;2022-11-27T01:08:09;20.08;;;11.10;;
72427;SDS011;60419;48.880;18.036;2022-11-27T01:10:55;20.30;;;11.00;;
72427;SDS011;60419;48.880;18.036;2022-11-27T01:13:42;22.08;;;11.77;;
72427;SDS011;60419;48.880;18.036;2022-11-27T01:16:28;26.30;;;13.07;;
72427;SDS011;60419;48.880;18.036;2022-11-27T01:19:15;18.05;;;11.52;;
72427;SDS011;60419;48.880;18.036;2022-11-27T01:22:00;23.95;;;11.85;;
72427;SDS011;60419;48.880;18.036;2022-11-27T01:24:46;22.00;;;12.05;;
72427;SDS011;60419;48.880;18.036;2022-11-27T01:27:31;21.48;;;11.77;;
72427;SDS011;60419;48.880;18.036;2022-11-27T01:30:16;20.38;;;11.48;;
72427;SDS011;60419;48.880;18.036;2022-11-27T01:33:02;17.65;;;11.15;;
72427;SDS011;60419;48.880;18.036;2022-11-27T01:35:54;20.33;;;11.63;;
72427;SDS011;60419;48.880;18.036;2022-11-27T01:38:44;19.50;;;11.25;;
72427;SDS011;60419;48.880;18.036;2022-11-27T01:41:32;19.15;;;11.43;;
72427;SDS011;60419;48.880;18.036;2022-11-27T01:47:12;21.33;;;13.35;;
72427;SDS011;60419;48.880;18.036;2022-11-27T01:50:06;23.27;;;13.77;;
72427;SDS011;60419;48.880;18.036;2022-11-27T01:52:55;20.95;;;13.38;;
72427;SDS011;60419;48.880;18.036;2022-11-27T01:55:47;21.85;;;12.95;;
72427;SDS011;60419;48.880;18.036;2022-11-27T01:58:35;22.02;;;12.60;;
72427;SDS011;60419;48.880;18.036;2022-11-27T02:01:21;20.10;;;12.55;;
72427;SDS011;60419;48.880;18.036;2022-11-27T02:04:08;19.48;;;12.40;;
72427;SDS011;60419;48.880;18.036;2022-11-27T02:06:54;20.13;;;12.75;;
72427;SDS011;60419;48.880;18.036;2022-11-27T02:09:43;19.85;;;12.57;;
72427;SDS011;60419;48.880;18.036;2022-11-27T02:12:50;19.65;;;11.95;;
72427;SDS011;60419;48.880;18.036;2022-11-27T02:16:02;21.58;;;11.95;;
72427;SDS011;60419;48.880;18.036;2022-11-27T02:19:03;18.48;;;11.15;;
72427;SDS011;60419;48.880;18.036;2022-11-27T02:22:08;20.23;;;11.77;;
72427;SDS011;60419;48.880;18.036;2022-11-27T02:29:11;18.70;;;11.43;;
72427;SDS011;60419;48.880;18.036;2022-11-27T02:35:03;18.65;;;12.10;;
72427;SDS011;60419;48.880;18.036;2022-11-27T02:40:58;18.50;;;11.40;;
72427;SDS011;60419;48.880;18.036;2022-11-27T02:43:49;20.13;;;12.27;;
72427;SDS011;60419;48.880;18.036;2022-11-27T02:46:37;21.10;;;12.00;;
72427;SDS011;60419;48.880;18.036;2022-11-27T02:49:24;20.05;;;12.02;;
72427;SDS011;60419;48.880;18.036;2022-11-27T02:52:11;20.13;;;12.15;;
72427;SDS011;60419;48.880;18.036;2022-11-27T02:54:59;21.23;;;12.57;;
72427;SDS011;60419;48.880;18.036;2022-11-27T02:57:47;18.80;;;11.88;;
72427;SDS011;60419;48.880;18.036;2022-11-27T03:00:36;18.08;;;11.27;;
72427;SDS011;60419;48.880;18.036;2022-11-27T03:03:25;18.17;;;11.52;;
72427;SDS011;60419;48.880;18.036;2022-11-27T03:06:18;19.98;;;11.80;;
72427;SDS011;60419;48.880;18.036;2022-11-27T03:09:10;18.58;;;11.73;;
72427;SDS011;60419;48.880;18.036;2022-11-27T03:12:02;18.17;;;11.05;;
72427;SDS011;60419;48.880;18.036;2022-11-27T03:14:51;18.15;;;10.68;;
72427;SDS011;60419;48.880;18.036;2022-11-27T03:20:25;20.63;;;11.73;;
72427;SDS011;60419;48.880;18.036;2022-11-27T03:23:17;18.38;;;11.30;;
72427;SDS011;60419;48.880;18.036;2022-11-27T03:26:02;19.95;;;11.68;;
72427;SDS011;60419;48.880;18.036;2022-11-27T03:28:47;18.20;;;11.75;;
72427;SDS011;60419;48.880;18.036;2022-11-27T03:31:36;19.02;;;11.55;;
72427;SDS011;60419;48.880;18.036;2022-11-27T03:34:22;19.42;;;11.93;;
72427;SDS011;60419;48.880;18.036;2022-11-27T03:37:07;17.30;;;11.05;;
72427;SDS011;60419;48.880;18.036;2022-11-27T03:39:53;18.08;;;11.52;;
72427;SDS011;60419;48.880;18.036;2022-11-27T03:48:37;18.30;;;10.75;;
72427;SDS011;60419;48.880;18.036;2022-11-27T03:54:32;16.23;;;10.18;;
72427;SDS011;60419;48.880;18.036;2022-11-27T03:58:03;17.98;;;10.95;;
72427;SDS011;60419;48.880;18.036;2022-11-27T04:00:54;17.30;;;10.52;;
72427;SDS011;60419;48.880;18.036;2022-11-27T04:03:43;18.23;;;10.70;;
72427;SDS011;60419;48.880;18.036;2022-11-27T04:06:28;18.67;;;10.55;;
72427;SDS011;60419;48.880;18.036;2022-11-27T04:09:13;17.67;;;10.20;;
72427;SDS011;60419;48.880;18.036;2022-11-27T04:11:59;18.58;;;10.65;;
72427;SDS011;60419;48.880;18.036;2022-11-27T04:14:44;17.73;;;10.55;;
72427;SDS011;60419;48.880;18.036;2022-11-27T04:17:29;17.52;;;10.45;;
72427;SDS011;60419;48.880;18.036;2022-11-27T04:20:15;18.27;;;10.75;;
72427;SDS011;60419;48.880;18.036;2022-11-27T04:23:00;17.63;;;10.38;;
72427;SDS011;60419;48.880;18.036;2022-11-27T04:25:46;18.52;;;10.60;;
72427;SDS011;60419;48.880;18.036;2022-11-27T04:28:32;15.70;;;9.70;;
72427;SDS011;60419;48.880;18.036;2022-11-27T04:31:18;16.60;;;10.20;;
72427;SDS011;60419;48.880;18.036;2022-11-27T04:34:03;15.05;;;10.38;;
72427;SDS011;60419;48.880;18.036;2022-11-27T04:36:48;16.20;;;9.63;;
72427;SDS011;60419;48.880;18.036;2022-11-27T04:39:34;17.35;;;10.05;;
72427;SDS011;60419;48.880;18.036;2022-11-27T04:42:19;15.80;;;9.38;;
72427;SDS011;60419;48.880;18.036;2022-11-27T04:45:04;15.38;;;9.65;;
72427;SDS011;60419;48.880;18.036;2022-11-27T04:47:50;17.52;;;10.30;;
72427;SDS011;60419;48.880;18.036;2022-11-27T04:50:36;15.20;;;9.43;;
72427;SDS011;60419;48.880;18.036;2022-11-27T04:53:21;16.23;;;10.02;;
72427;SDS011;60419;48.880;18.036;2022-11-27T04:56:06;15.45;;;8.95;;
72427;SDS011;60419;48.880;18.036;2022-11-27T04:58:52;15.45;;;9.27;;
72427;SDS011;60419;48.880;18.036;2022-11-27T05:01:37;16.30;;;9.88;;
72427;SDS011;60419;48.880;18.036;2022-11-27T05:04:23;15.02;;;9.52;;
72427;SDS011;60419;48.880;18.036;2022-11-27T05:07:09;16.52;;;10.90;;
72427;SDS011;60419;48.880;18.036;2022-11-27T05:09:55;15.63;;;9.30;;
72427;SDS011;60419;48.880;18.036;2022-11-27T05:12:40;17.55;;;9.50;;
72427;SDS011;60419;48.880;18.036;2022-11-27T05:15:25;15.48;;;9.00;;
72427;SDS011;60419;48.880;18.036;2022-11-27T05:18:11;14.25;;;8.43;;
72427;SDS011;60419;48.880;18.036;2022-11-27T05:23:43;14.55;;;7.88;;
72427;SDS011;60419;48.880;18.036;2022-11-27T05:26:28;13.88;;;7.28;;
72427;SDS011;60419;48.880;18.036;2022-11-27T05:29:13;13.38;;;8.10;;
72427;SDS011;60419;48.880;18.036;2022-11-27T05:31:59;14.98;;;8.18;;
72427;SDS011;60419;48.880;18.036;2022-11-27T05:34:45;13.13;;;7.05;;
72427;SDS011;60419;48.880;18.036;2022-11-27T05:37:32;12.40;;;7.40;;
72427;SDS011;60419;48.880;18.036;2022-11-27T05:40:17;14.30;;;8.02;;
72427;SDS011;60419;48.880;18.036;2022-11-27T05:43:03;14.27;;;8.20;;
72427;SDS011;60419;48.880;18.036;2022-11-27T05:45:48;14.75;;;8.77;;
72427;SDS011;60419;48.880;18.036;2022-11-27T05:48:34;16.10;;;8.77;;
72427;SDS011;60419;48.880;18.036;2022-11-27T05:51:20;15.70;;;8.77;;
72427;SDS011;60419;48.880;18.036;2022-11-27T05:54:05;15.77;;;9.02;;
72427;SDS011;60419;48.880;18.036;2022-11-27T05:56:51;16.45;;;9.15;;
72427;SDS011;60419;48.880;18.036;2022-11-27T05:59:36;20.05;;;10.00;;
72427;SDS011;60419;48.880;18.036;2022-11-27T06:02:23;16.88;;;8.93;;
72427;SDS011;60419;48.880;18.036;2022-11-27T06:05:09;19.05;;;9.65;;
72427;SDS011;60419;48.880;18.036;2022-11-27T06:07:55;20.80;;;10.80;;
72427;SDS011;60419;48.880;18.036;2022-11-27T06:10:40;19.30;;;9.35;;
72427;SDS011;60419;48.880;18.036;2022-11-27T06:13:26;17.38;;;9.85;;
72427;SDS011;60419;48.880;18.036;2022-11-27T06:16:12;16.85;;;10.25;;
72427;SDS011;60419;48.880;18.036;2022-11-27T06:18:59;17.27;;;10.23;;
72427;SDS011;60419;48.880;18.036;2022-11-27T06:21:44;18.00;;;10.45;;
72427;SDS011;60419;48.880;18.036;2022-11-27T06:24:30;19.40;;;10.68;;
72427;SDS011;60419;48.880;18.036;2022-11-27T06:27:15;20.33;;;11.43;;
72427;SDS011;60419;48.880;18.036;2022-11-27T06:30:01;23.83;;;11.82;;
72427;SDS011;60419;48.880;18.036;2022-11-27T06:32:47;24.23;;;13.20;;
72427;SDS011;60419;48.880;18.036;2022-11-27T06:35:33;21.15;;;11.52;;
72427;SDS011;60419;48.880;18.036;2022-11-27T06:38:18;23.83;;;13.00;;
72427;SDS011;60419;48.880;18.036;2022-11-27T06:41:08;26.38;;;13.32;;
72427;SDS011;60419;48.880;18.036;2022-11-27T06:43:59;22.50;;;12.93;;
72427;SDS011;60419;48.880;18.036;2022-11-27T06:46:45;21.73;;;12.48;;
72427;SDS011;60419;48.880;18.036;2022-11-27T06:49:30;29.67;;;13.75;;
72427;SDS011;60419;48.880;18.036;2022-11-27T06:52:16;21.63;;;12.95;;
72427;SDS011;60419;48.880;18.036;2022-11-27T06:55:01;24.92;;;13.48;;
72427;SDS011;60419;48.880;18.036;2022-11-27T06:57:48;24.13;;;13.48;;
72427;SDS011;60419;48.880;18.036;2022-11-27T07:00:34;29.90;;;14.77;;
72427;SDS011;60419;48.880;18.036;2022-11-27T07:03:20;26.65;;;15.30;;
72427;SDS011;60419;48.880;18.036;2022-11-27T07:06:06;24.70;;;14.38;;
72427;SDS011;60419;48.880;18.036;2022-11-27T07:08:53;27.10;;;15.30;;
72427;SDS011;60419;48.880;18.036;2022-11-27T07:11:39;26.02;;;13.90;;
72427;SDS011;60419;48.880;18.036;2022-11-27T07:14:25;18.90;;;11.38;;
72427;SDS011;60419;48.880;18.036;2022-11-27T07:17:10;22.25;;;13.10;;
72427;SDS011;60419;48.880;18.036;2022-11-27T07:19:55;21.05;;;11.65;;
72427;SDS011;60419;48.880;18.036;2022-11-27T07:22:41;22.20;;;12.38;;
72427;SDS011;60419;48.880;18.036;2022-11-27T07:25:26;21.92;;;12.52;;
72427;SDS011;60419;48.880;18.036;2022-11-27T07:28:11;19.73;;;12.00;;
72427;SDS011;60419;48.880;18.036;2022-11-27T07:30:57;27.33;;;13.48;;
72427;SDS011;60419;48.880;18.036;2022-11-27T07:33:43;30.33;;;15.10;;
72427;SDS011;60419;48.880;18.036;2022-11-27T07:36:29;25.83;;;15.05;;
72427;SDS011;60419;48.880;18.036;2022-11-27T07:39:15;29.63;;;16.98;;
72427;SDS011;60419;48.880;18.036;2022-11-27T07:42:01;32.65;;;17.20;;
72427;SDS011;60419;48.880;18.036;2022-11-27T07:44:46;27.48;;;16.50;;
72427;SDS011;60419;48.880;18.036;2022-11-27T07:47:32;26.88;;;15.25;;
72427;SDS011;60419;48.880;18.036;2022-11-27T07:50:17;31.38;;;18.33;;
72427;SDS011;60419;48.880;18.036;2022-11-27T07:53:02;29.52;;;17.05;;
72427;SDS011;60419;48.880;18.036;2022-11-27T07:55:48;26.52;;;15.50;;
72427;SDS011;60419;48.880;18.036;2022-11-27T07:58:33;33.25;;;16.92;;
72427;SDS011;60419;48.880;18.036;2022-11-27T08:01:19;33.25;;;18.20;;
72427;SDS011;60419;48.880;18.036;2022-11-27T08:04:05;33.65;;;20.23;;
72427;SDS011;60419;48.880;18.036;2022-11-27T08:06:50;31.13;;;17.27;;
72427;SDS011;60419;48.880;18.036;2022-11-27T08:09:36;28.13;;;16.27;;
72427;SDS011;60419;48.880;18.036;2022-11-27T08:12:23;24.90;;;15.10;;
72427;SDS011;60419;48.880;18.036;2022-11-27T08:15:10;26.67;;;15.75;;
72427;SDS011;60419;48.880;18.036;2022-11-27T08:17:56;26.85;;;16.23;;
72427;SDS011;60419;48.880;18.036;2022-11-27T08:20:41;28.30;;;14.93;;
72427;SDS011;60419;48.880;18.036;2022-11-27T08:23:27;23.67;;;14.65;;
72427;SDS011;60419;48.880;18.036;2022-11-27T08:26:12;25.15;;;14.70;;
72427;SDS011;60419;48.880;18.036;2022-11-27T08:28:58;22.20;;;13.40;;
72427;SDS011;60419;48.880;18.036;2022-11-27T08:31:43;21.50;;;13.32;;
72427;SDS011;60419;48.880;18.036;2022-11-27T08:34:28;21.48;;;13.25;;
72427;SDS011;60419;48.880;18.036;2022-11-27T08:37:15;19.48;;;11.60;;
72427;SDS011;60419;48.880;18.036;2022-11-27T08:40:00;23.25;;;13.65;;
72427;SDS011;60419;48.880;18.036;2022-11-27T08:42:46;21.92;;;12.55;;
72427;SDS011;60419;48.880;18.036;2022-11-27T08:45:31;20.55;;;11.80;;
72427;SDS011;60419;48.880;18.036;2022-11-27T08:48:17;19.88;;;11.23;;
72427;SDS011;60419;48.880;18.036;2022-11-27T08:51:04;17.88;;;10.60;;
72427;SDS011;60419;48.880;18.036;2022-11-27T08:53:51;18.10;;;11.70;;
72427;SDS011;60419;48.880;18.036;2022-11-27T08:56:37;16.20;;;9.65;;
72427;SDS011;60419;48.880;18.036;2022-11-27T08:59:22;18.27;;;10.82;;
72427;SDS011;60419;48.880;18.036;2022-11-27T09:02:10;19.25;;;10.15;;
72427;SDS011;60419;48.880;18.036;2022-11-27T09:04:56;16.75;;;10.32;;
72427;SDS011;60419;48.880;18.036;2022-11-27T09:07:41;13.88;;;8.40;;
72427;SDS011;60419;48.880;18.036;2022-11-27T09:10:27;14.77;;;8.85;;
72427;SDS011;60419;48.880;18.036;2022-11-27T09:13:12;16.40;;;9.23;;
72427;SDS011;60419;48.880;18.036;2022-11-27T09:15:58;18.05;;;9.13;;
72427;SDS011;60419;48.880;18.036;2022-11-27T09:18:44;15.75;;;8.65;;
72427;SDS011;60419;48.880;18.036;2022-11-27T09:21:30;15.57;;;8.68;;
72427;SDS011;60419;48.880;18.036;2022-11-27T09:24:16;16.88;;;9.35;;
72427;SDS011;60419;48.880;18.036;2022-11-27T09:27:01;15.38;;;8.23;;
72427;SDS011;60419;48.880;18.036;2022-11-27T09:29:46;15.95;;;9.20;;
72427;SDS011;60419;48.880;18.036;2022-11-27T09:32:33;12.57;;;6.75;;
72427;SDS011;60419;48.880;18.036;2022-11-27T09:35:19;13.32;;;6.68;;
72427;SDS011;60419;48.880;18.036;2022-11-27T09:38:04;13.50;;;7.10;;
72427;SDS011;60419;48.880;18.036;2022-11-27T09:40:51;14.20;;;7.38;;
72427;SDS011;60419;48.880;18.036;2022-11-27T09:43:40;12.02;;;7.45;;
72427;SDS011;60419;48.880;18.036;2022-11-27T09:46:37;10.75;;;6.35;;
72427;SDS011;60419;48.880;18.036;2022-11-27T09:52:13;10.20;;;6.00;;
72427;SDS011;60419;48.880;18.036;2022-11-27T09:58:18;7.07;;;3.80;;
72427;SDS011;60419;48.880;18.036;2022-11-27T10:03:56;6.55;;;3.88;;
72427;SDS011;60419;48.880;18.036;2022-11-27T10:13:13;7.53;;;3.72;;
72427;SDS011;60419;48.880;18.036;2022-11-27T10:16:08;10.70;;;5.05;;
72427;SDS011;60419;48.880;18.036;2022-11-27T10:22:16;10.07;;;5.40;;
72427;SDS011;60419;48.880;18.036;2022-11-27T10:31:18;8.30;;;4.07;;
72427;SDS011;60419;48.880;18.036;2022-11-27T10:37:39;7.65;;;4.65;;
72427;SDS011;60419;48.880;18.036;2022-11-27T10:40:33;8.02;;;4.07;;
72427;SDS011;60419;48.880;18.036;2022-11-27T10:43:24;7.55;;;4.03;;
72427;SDS011;60419;48.880;18.036;2022-11-27T10:46:11;12.20;;;6.18;;
72427;SDS011;60419;48.880;18.036;2022-11-27T10:48:59;10.30;;;5.43;;
72427;SDS011;60419;48.880;18.036;2022-11-27T10:51:44;11.70;;;5.80;;
72427;SDS011;60419;48.880;18.036;2022-11-27T10:54:32;9.18;;;5.03;;
72427;SDS011;60419;48.880;18.036;2022-11-27T10:57:28;9.18;;;4.88;;
72427;SDS011;60419;48.880;18.036;2022-11-27T11:00:24;9.13;;;4.50;;
72427;SDS011;60419;48.880;18.036;2022-11-27T11:03:17;7.30;;;3.97;;
72427;SDS011;60419;48.880;18.036;2022-11-27T11:06:04;7.07;;;3.50;;
72427;SDS011;60419;48.880;18.036;2022-11-27T11:12:16;7.55;;;3.63;;
72427;SDS011;60419;48.880;18.036;2022-11-27T11:15:10;7.43;;;3.63;;
72427;SDS011;60419;48.880;18.036;2022-11-27T11:17:55;7.35;;;3.63;;
72427;SDS011;60419;48.880;18.036;2022-11-27T11:20:43;6.22;;;3.30;;
72427;SDS011;60419;48.880;18.036;2022-11-27T11:23:33;11.00;;;4.25;;
72427;SDS011;60419;48.880;18.036;2022-11-27T11:26:27;6.60;;;3.28;;
72427;SDS011;60419;48.880;18.036;2022-11-27T11:32:25;8.90;;;4.53;;
72427;SDS011;60419;48.880;18.036;2022-11-27T11:38:14;45.78;;;15.15;;
72427;SDS011;60419;48.880;18.036;2022-11-27T11:41:03;20.20;;;8.98;;
72427;SDS011;60419;48.880;18.036;2022-11-27T11:43:52;22.58;;;8.60;;
72427;SDS011;60419;48.880;18.036;2022-11-27T11:46:49;5.13;;;2.70;;
72427;SDS011;60419;48.880;18.036;2022-11-27T11:49:36;12.70;;;5.20;;
72427;SDS011;60419;48.880;18.036;2022-11-27T11:52:31;7.03;;;3.05;;
72427;SDS011;60419;48.880;18.036;2022-11-27T11:55:25;6.45;;;3.00;;
72427;SDS011;60419;48.880;18.036;2022-11-27T12:10:55;6.53;;;3.72;;
72427;SDS011;60419;48.880;18.036;2022-11-27T12:29:27;7.15;;;3.40;;
72427;SDS011;60419;48.880;18.036;2022-11-27T12:45:33;5.63;;;2.80;;
72427;SDS011;60419;48.880;18.036;2022-11-27T12:48:24;6.25;;;3.40;;
72427;SDS011;60419;48.880;18.036;2022-11-27T12:57:02;5.65;;;3.17;;
72427;SDS011;60419;48.880;18.036;2022-11-27T12:59:58;6.32;;;3.38;;
72427;SDS011;60419;48.880;18.036;2022-11-27T13:05:59;5.88;;;2.88;;
72427;SDS011;60419;48.880;18.036;2022-11-27T13:08:54;5.90;;;2.83;;
72427;SDS011;60419;48.880;18.036;2022-11-27T13:11:41;5.97;;;3.33;;
72427;SDS011;60419;48.880;18.036;2022-11-27T13:14:27;5.85;;;3.22;;
72427;SDS011;60419;48.880;18.036;2022-11-27T13:17:18;5.18;;;3.03;;
72427;SDS011;60419;48.880;18.036;2022-11-27T13:20:05;6.30;;;3.00;;
72427;SDS011;60419;48.880;18.036;2022-11-27T13:22:58;6.95;;;2.75;;
72427;SDS011;60419;48.880;18.036;2022-11-27T13:25:53;5.18;;;3.10;;
72427;SDS011;60419;48.880;18.036;2022-11-27T13:31:31;5.07;;;2.70;;
72427;SDS011;60419;48.880;18.036;2022-11-27T13:37:08;6.43;;;3.10;;
72427;SDS011;60419;48.880;18.036;2022-11-27T13:40:21;6.05;;;3.15;;
72427;SDS011;60419;48.880;18.036;2022-11-27T13:43:27;7.00;;;3.20;;
72427;SDS011;60419;48.880;18.036;2022-11-27T13:46:22;6.35;;;3.10;;
72427;SDS011;60419;48.880;18.036;2022-11-27T13:49:17;5.63;;;2.95;;
72427;SDS011;60419;48.880;18.036;2022-11-27T13:55:01;6.37;;;3.20;;
72427;SDS011;60419;48.880;18.036;2022-11-27T13:57:51;5.55;;;3.05;;
72427;SDS011;60419;48.880;18.036;2022-11-27T14:00:38;6.10;;;3.20;;
72427;SDS011;60419;48.880;18.036;2022-11-27T14:03:27;7.97;;;3.45;;
72427;SDS011;60419;48.880;18.036;2022-11-27T14:09:09;7.57;;;3.70;;
72427;SDS011;60419;48.880;18.036;2022-11-27T14:11:55;6.93;;;2.95;;
72427;SDS011;60419;48.880;18.036;2022-11-27T14:14:40;5.78;;;3.20;;
72427;SDS011;60419;48.880;18.036;2022-11-27T14:17:38;6.15;;;2.88;;
72427;SDS011;60419;48.880;18.036;2022-11-27T14:20:26;5.68;;;2.80;;
72427;SDS011;60419;48.880;18.036;2022-11-27T14:23:24;6.40;;;3.08;;
72427;SDS011;60419;48.880;18.036;2022-11-27T14:28:57;6.68;;;3.72;;
72427;SDS011;60419;48.880;18.036;2022-11-27T14:31:44;6.03;;;3.25;;
72427;SDS011;60419;48.880;18.036;2022-11-27T14:34:30;4.90;;;2.80;;
72427;SDS011;60419;48.880;18.036;2022-11-27T14:37:20;7.32;;;3.70;;
72427;SDS011;60419;48.880;18.036;2022-11-27T14:40:11;6.05;;;3.35;;
72427;SDS011;60419;48.880;18.036;2022-11-27T14:43:09;7.70;;;3.28;;
72427;SDS011;60419;48.880;18.036;2022-11-27T14:45:59;8.63;;;3.50;;
72427;SDS011;60419;48.880;18.036;2022-11-27T14:48:47;6.28;;;3.25;;
72427;SDS011;60419;48.880;18.036;2022-11-27T14:51:39;5.70;;;3.30;;
72427;SDS011;60419;48.880;18.036;2022-11-27T14:54:25;7.80;;;3.90;;
72427;SDS011;60419;48.880;18.036;2022-11-27T14:57:14;9.77;;;4.32;;
72427;SDS011;60419;48.880;18.036;2022-11-27T15:03:14;8.93;;;5.45;;
72427;SDS011;60419;48.880;18.036;2022-11-27T15:06:02;19.63;;;5.88;;
72427;SDS011;60419;48.880;18.036;2022-11-27T15:08:51;18.33;;;8.45;;
72427;SDS011;60419;48.880;18.036;2022-11-27T15:11:37;11.82;;;5.40;;
72427;SDS011;60419;48.880;18.036;2022-11-27T15:14:24;13.20;;;5.10;;
72427;SDS011;60419;48.880;18.036;2022-11-27T15:17:16;12.93;;;7.53;;
72427;SDS011;60419;48.880;18.036;2022-11-27T15:23:21;10.68;;;5.50;;
72427;SDS011;60419;48.880;18.036;2022-11-27T15:26:10;14.05;;;7.45;;
72427;SDS011;60419;48.880;18.036;2022-11-27T15:28:57;11.63;;;6.32;;
72427;SDS011;60419;48.880;18.036;2022-11-27T15:31:42;15.40;;;7.05;;
72427;SDS011;60419;48.880;18.036;2022-11-27T15:34:35;11.52;;;6.47;;
72427;SDS011;60419;48.880;18.036;2022-11-27T15:37:21;17.02;;;8.43;;
72427;SDS011;60419;48.880;18.036;2022-11-27T15:40:21;17.73;;;9.75;;
72427;SDS011;60419;48.880;18.036;2022-11-27T15:43:15;17.60;;;9.32;;
72427;SDS011;60419;48.880;18.036;2022-11-27T15:46:03;11.88;;;6.80;;
72427;SDS011;60419;48.880;18.036;2022-11-27T15:48:50;14.70;;;7.55;;
72427;SDS011;60419;48.880;18.036;2022-11-27T15:51:35;16.65;;;8.80;;
72427;SDS011;60419;48.880;18.036;2022-11-27T15:54:22;16.25;;;8.45;;
72427;SDS011;60419;48.880;18.036;2022-11-27T15:57:08;16.80;;;8.45;;
72427;SDS011;60419;48.880;18.036;2022-11-27T15:59:54;14.80;;;7.85;;
72427;SDS011;60419;48.880;18.036;2022-11-27T16:02:40;17.52;;;7.95;;
72427;SDS011;60419;48.880;18.036;2022-11-27T16:05:25;16.15;;;8.13;;
72427;SDS011;60419;48.880;18.036;2022-11-27T16:08:10;17.90;;;8.65;;
72427;SDS011;60419;48.880;18.036;2022-11-27T16:10:59;16.08;;;8.07;;
72427;SDS011;60419;48.880;18.036;2022-11-27T16:13:46;15.68;;;8.27;;
72427;SDS011;60419;48.880;18.036;2022-11-27T16:16:32;14.60;;;7.70;;
72427;SDS011;60419;48.880;18.036;2022-11-27T16:19:17;17.00;;;8.82;;
72427;SDS011;60419;48.880;18.036;2022-11-27T16:22:03;17.40;;;8.80;;
72427;SDS011;60419;48.880;18.036;2022-11-27T16:24:48;17.63;;;9.63;;
72427;SDS011;60419;48.880;18.036;2022-11-27T16:27:33;17.83;;;9.20;;
72427;SDS011;60419;48.880;18.036;2022-11-27T16:30:19;18.08;;;9.38;;
72427;SDS011;60419;48.880;18.036;2022-11-27T16:33:04;20.83;;;9.93;;
72427;SDS011;60419;48.880;18.036;2022-11-27T16:35:50;19.10;;;8.98;;
72427;SDS011;60419;48.880;18.036;2022-11-27T16:38:36;17.80;;;10.02;;
72427;SDS011;60419;48.880;18.036;2022-11-27T16:41:22;17.15;;;9.27;;
72427;SDS011;60419;48.880;18.036;2022-11-27T16:44:09;20.63;;;10.20;;
72427;SDS011;60419;48.880;18.036;2022-11-27T16:46:55;19.92;;;9.13;;
72427;SDS011;60419;48.880;18.036;2022-11-27T16:49:41;15.85;;;8.90;;
72427;SDS011;60419;48.880;18.036;2022-11-27T16:52:26;16.02;;;9.73;;
72427;SDS011;60419;48.880;18.036;2022-11-27T16:55:12;16.60;;;10.05;;
72427;SDS011;60419;48.880;18.036;2022-11-27T16:57:57;22.90;;;11.65;;
72427;SDS011;60419;48.880;18.036;2022-11-27T17:00:42;19.35;;;10.68;;
72427;SDS011;60419;48.880;18.036;2022-11-27T17:03:28;25.60;;;11.43;;
72427;SDS011;60419;48.880;18.036;2022-11-27T17:06:17;18.95;;;10.35;;
72427;SDS011;60419;48.880;18.036;2022-11-27T17:09:10;20.52;;;11.55;;
72427;SDS011;60419;48.880;18.036;2022-11-27T17:11:55;29.95;;;14.30;;
72427;SDS011;60419;48.880;18.036;2022-11-27T17:14:42;31.23;;;16.40;;
72427;SDS011;60419;48.880;18.036;2022-11-27T17:17:27;33.70;;;18.20;;
72427;SDS011;60419;48.880;18.036;2022-11-27T17:20:13;28.73;;;16.48;;
72427;SDS011;60419;48.880;18.036;2022-11-27T17:22:58;29.38;;;16.15;;
72427;SDS011;60419;48.880;18.036;2022-11-27T17:25:43;32.25;;;17.33;;
72427;SDS011;60419;48.880;18.036;2022-11-27T17:28:29;33.85;;;19.08;;
72427;SDS011;60419;48.880;18.036;2022-11-27T17:31:15;40.38;;;20.23;;
72427;SDS011;60419;48.880;18.036;2022-11-27T17:34:05;42.80;;;21.52;;
72427;SDS011;60419;48.880;18.036;2022-11-27T17:36:51;42.20;;;21.63;;
72427;SDS011;60419;48.880;18.036;2022-11-27T17:39:41;43.20;;;21.03;;
72427;SDS011;60419;48.880;18.036;2022-11-27T17:42:27;39.10;;;20.50;;
72427;SDS011;60419;48.880;18.036;2022-11-27T17:45:12;39.78;;;22.13;;
72427;SDS011;60419;48.880;18.036;2022-11-27T17:47:58;45.80;;;23.77;;
72427;SDS011;60419;48.880;18.036;2022-11-27T17:50:44;41.40;;;21.15;;
72427;SDS011;60419;48.880;18.036;2022-11-27T17:53:29;42.13;;;22.67;;
72427;SDS011;60419;48.880;18.036;2022-11-27T17:56:16;41.75;;;20.85;;
72427;SDS011;60419;48.880;18.036;2022-11-27T17:59:03;41.97;;;22.02;;
72427;SDS011;60419;48.880;18.036;2022-11-27T18:01:48;39.35;;;21.73;;
72427;SDS011;60419;48.880;18.036;2022-11-27T18:04:36;40.20;;;21.60;;
72427;SDS011;60419;48.880;18.036;2022-11-27T18:07:22;42.80;;;21.10;;
72427;SDS011;60419;48.880;18.036;2022-11-27T18:10:08;38.40;;;20.95;;
72427;SDS011;60419;48.880;18.036;2022-11-27T18:12:54;42.78;;;20.48;;
72427;SDS011;60419;48.880;18.036;2022-11-27T18:15:39;37.30;;;20.58;;
72427;SDS011;60419;48.880;18.036;2022-11-27T18:18:26;37.85;;;20.25;;
72427;SDS011;60419;48.880;18.036;2022-11-27T18:21:13;40.08;;;21.02;;
72427;SDS011;60419;48.880;18.036;2022-11-27T18:24:00;40.53;;;20.45;;
72427;SDS011;60419;48.880;18.036;2022-11-27T18:26:45;36.55;;;21.27;;
72427;SDS011;60419;48.880;18.036;2022-11-27T18:29:31;40.65;;;22.33;;
72427;SDS011;60419;48.880;18.036;2022-11-27T18:32:17;36.13;;;20.02;;
72427;SDS011;60419;48.880;18.036;2022-11-27T18:35:03;37.05;;;20.00;;